sensor_id;sensor_type;location;lat;lon;timestamp;pressure;altitude;pressure_sealevel;temperature;humidity
7018;BME280;3549;42.162;24.726;2023-06-19T00:02:20;47776.63;;;-141.97;67.78
7018;BME280;3549;42.162;24.726;2023-06-19T00:04:45;47728.59;;;-141.97;67.60
7018;BME280;3549;42.162;24.726;2023-06-19T00:07:11;47559.44;;;-141.97;67.98
7018;BME280;3549;42.162;24.726;2023-06-19T00:09:36;47595.97;;;-141.97;67.61
7018;BME280;3549;42.162;24.726;2023-06-19T00:12:02;47480.63;;;-141.97;68.14
7018;BME280;3549;42.162;24.726;2023-06-19T00:14:29;47690.16;;;-141.97;68.04
7018;BME280;3549;42.162;24.726;2023-06-19T00:16:55;47574.81;;;-141.97;67.85
7018;BME280;3549;42.162;24.726;2023-06-19T00:19:22;47453.72;;;-141.97;68.28
7018;BME280;3549;42.162;24.726;2023-06-19T00:21:47;47665.16;;;-141.97;67.75
7018;BME280;3549;42.162;24.726;2023-06-19T00:24:13;47474.88;;;-141.97;68.18
7018;BME280;3549;42.162;24.726;2023-06-19T00:26:38;47747.81;;;-141.97;67.96
7018;BME280;3549;42.162;24.726;2023-06-19T00:29:05;47838.16;;;-141.97;68.46
7018;BME280;3549;42.162;24.726;2023-06-19T00:31:31;47638.25;;;-141.97;68.39
7018;BME280;3549;42.162;24.726;2023-06-19T00:33:57;47603.66;;;-141.97;67.98
7018;BME280;3549;42.162;24.726;2023-06-19T00:36:22;47542.16;;;-141.97;67.92
7018;BME280;3549;42.162;24.726;2023-06-19T00:38:51;47630.56;;;-141.97;67.90
7018;BME280;3549;42.162;24.726;2023-06-19T00:41:18;47542.16;;;-141.97;67.98
7018;BME280;3549;42.162;24.726;2023-06-19T00:43:43;47680.53;;;-141.97;68.13
7018;BME280;3549;42.162;24.726;2023-06-19T00:46:09;47603.66;;;-141.97;68.09
7018;BME280;3549;42.162;24.726;2023-06-19T00:48:35;47438.34;;;-141.97;68.30
7018;BME280;3549;42.162;24.726;2023-06-19T00:51:01;47634.41;;;-141.97;68.79
7018;BME280;3549;42.162;24.726;2023-06-19T00:53:27;47590.19;;;-141.97;68.50
7018;BME280;3549;42.162;24.726;2023-06-19T00:55:53;47657.47;;;-141.97;69.29
7018;BME280;3549;42.162;24.726;2023-06-19T00:58:22;47392.22;;;-141.97;68.91
7018;BME280;3549;42.162;24.726;2023-06-19T01:00:50;47467.19;;;-141.97;69.07
7018;BME280;3549;42.162;24.726;2023-06-19T01:03:16;47707.44;;;-141.97;68.86
7018;BME280;3549;42.162;24.726;2023-06-19T01:05:42;47653.63;;;-141.97;68.97
7018;BME280;3549;42.162;24.726;2023-06-19T01:10:57;47609.41;;;-141.97;69.12
7018;BME280;3549;42.162;24.726;2023-06-19T01:16:04;47870.81;;;-141.97;69.33
7018;BME280;3549;42.162;24.726;2023-06-19T01:18:31;47584.44;;;-141.97;69.08
7018;BME280;3549;42.162;24.726;2023-06-19T01:21:18;47661.31;;;-141.97;69.54
7018;BME280;3549;42.162;24.726;2023-06-19T01:23:44;47680.53;;;-141.97;69.45
7018;BME280;3549;42.162;24.726;2023-06-19T01:26:11;47830.47;;;-141.97;69.74
7018;BME280;3549;42.162;24.726;2023-06-19T01:28:38;47817.00;;;-141.97;69.46
7018;BME280;3549;42.162;24.726;2023-06-19T01:31:31;47799.72;;;-141.97;69.75
7018;BME280;3549;42.162;24.726;2023-06-19T01:33:59;47678.63;;;-141.97;69.77
7018;BME280;3549;42.162;24.726;2023-06-19T01:36:26;47496.00;;;-141.97;69.70
7018;BME280;3549;42.162;24.726;2023-06-19T01:38:55;47509.47;;;-141.97;69.37
7018;BME280;3549;42.162;24.726;2023-06-19T01:41:23;47780.47;;;-141.97;69.05
7018;BME280;3549;42.162;24.726;2023-06-19T01:43:50;47718.97;;;-141.97;69.13
7018;BME280;3549;42.162;24.726;2023-06-19T01:46:16;47636.31;;;-141.97;69.12
7018;BME280;3549;42.162;24.726;2023-06-19T01:48:41;47818.94;;;-141.97;69.05
7018;BME280;3549;42.162;24.726;2023-06-19T01:51:07;47669.00;;;-141.97;69.08
7018;BME280;3549;42.162;24.726;2023-06-19T01:53:33;47574.81;;;-141.97;68.90
7018;BME280;3549;42.162;24.726;2023-06-19T01:55:59;47542.16;;;-141.97;68.57
7018;BME280;3549;42.162;24.726;2023-06-19T01:58:25;47805.47;;;-141.97;68.98
7018;BME280;3549;42.162;24.726;2023-06-19T02:00:51;47622.88;;;-141.97;68.86
7018;BME280;3549;42.162;24.726;2023-06-19T02:03:16;47540.22;;;-141.97;68.55
7018;BME280;3549;42.162;24.726;2023-06-19T02:05:42;47665.16;;;-141.97;67.96
7018;BME280;3549;42.162;24.726;2023-06-19T02:08:08;47676.69;;;-141.97;67.73
7018;BME280;3549;42.162;24.726;2023-06-19T02:10:34;47649.78;;;-141.97;67.58
7018;BME280;3549;42.162;24.726;2023-06-19T02:13:00;47630.56;;;-141.97;67.24
7018;BME280;3549;42.162;24.726;2023-06-19T02:15:25;47546.00;;;-141.97;67.14
7018;BME280;3549;42.162;24.726;2023-06-19T02:17:50;47559.44;;;-141.97;66.88
7018;BME280;3549;42.162;24.726;2023-06-19T02:20:20;47636.31;;;-141.97;66.58
7018;BME280;3549;42.162;24.726;2023-06-19T02:22:46;47551.75;;;-141.97;66.51
7018;BME280;3549;42.162;24.726;2023-06-19T02:25:11;47630.56;;;-141.97;66.45
7018;BME280;3549;42.162;24.726;2023-06-19T02:27:36;47684.38;;;-141.97;66.20
7018;BME280;3549;42.162;24.726;2023-06-19T02:30:02;47626.72;;;-141.97;65.91
7018;BME280;3549;42.162;24.726;2023-06-19T02:32:28;47661.31;;;-141.97;65.79
7018;BME280;3549;42.162;24.726;2023-06-19T02:34:53;47647.84;;;-141.97;65.66
7018;BME280;3549;42.162;24.726;2023-06-19T02:37:19;47826.63;;;-141.97;65.61
7018;BME280;3549;42.162;24.726;2023-06-19T02:39:44;47653.63;;;-141.97;65.46
7018;BME280;3549;42.162;24.726;2023-06-19T02:42:09;47740.13;;;-141.97;65.39
7018;BME280;3549;42.162;24.726;2023-06-19T02:44:35;47630.56;;;-141.97;65.51
7018;BME280;3549;42.162;24.726;2023-06-19T02:47:01;47672.84;;;-141.97;65.76
7018;BME280;3549;42.162;24.726;2023-06-19T02:49:26;47745.88;;;-141.97;65.68
7018;BME280;3549;42.162;24.726;2023-06-19T02:51:51;47597.88;;;-141.97;65.62
7018;BME280;3549;42.162;24.726;2023-06-19T02:54:17;47576.75;;;-141.97;65.35
7018;BME280;3549;42.162;24.726;2023-06-19T02:56:42;47578.66;;;-141.97;65.42
7018;BME280;3549;42.162;24.726;2023-06-19T02:59:08;47717.06;;;-141.97;65.69
7018;BME280;3549;42.162;24.726;2023-06-19T03:01:33;47813.16;;;-141.97;65.77
7018;BME280;3549;42.162;24.726;2023-06-19T03:03:59;47770.88;;;-141.97;65.79
7018;BME280;3549;42.162;24.726;2023-06-19T03:06:24;47526.75;;;-141.97;65.86
7018;BME280;3549;42.162;24.726;2023-06-19T03:08:51;47570.97;;;-141.97;66.52
7018;BME280;3549;42.162;24.726;2023-06-19T03:11:16;47686.31;;;-141.97;66.69
7018;BME280;3549;42.162;24.726;2023-06-19T03:13:51;47690.16;;;-141.97;67.32
7018;BME280;3549;42.162;24.726;2023-06-19T03:16:18;47745.88;;;-141.97;67.10
7018;BME280;3549;42.162;24.726;2023-06-19T03:18:44;47845.84;;;-141.97;67.68
7018;BME280;3549;42.162;24.726;2023-06-19T03:21:13;47818.94;;;-141.97;68.03
7018;BME280;3549;42.162;24.726;2023-06-19T03:23:39;47576.75;;;-141.97;68.30
7018;BME280;3549;42.162;24.726;2023-06-19T03:26:08;47553.69;;;-141.97;68.14
7018;BME280;3549;42.162;24.726;2023-06-19T03:28:34;47547.91;;;-141.97;68.25
7018;BME280;3549;42.162;24.726;2023-06-19T03:31:00;47701.69;;;-141.97;68.39
7018;BME280;3549;42.162;24.726;2023-06-19T03:33:26;47638.25;;;-141.97;68.57
7018;BME280;3549;42.162;24.726;2023-06-19T03:35:51;47605.56;;;-141.97;68.61
7018;BME280;3549;42.162;24.726;2023-06-19T03:38:16;47872.75;;;-141.97;68.36
7018;BME280;3549;42.162;24.726;2023-06-19T03:40:42;47694.00;;;-141.97;68.18
7018;BME280;3549;42.162;24.726;2023-06-19T03:43:07;47561.38;;;-141.97;68.21
7018;BME280;3549;42.162;24.726;2023-06-19T03:45:33;47670.91;;;-141.97;67.99
7018;BME280;3549;42.162;24.726;2023-06-19T03:47:58;47715.13;;;-141.97;67.41
7018;BME280;3549;42.162;24.726;2023-06-19T03:50:24;47690.16;;;-141.97;67.56
7018;BME280;3549;42.162;24.726;2023-06-19T03:52:49;47692.06;;;-141.97;67.32
7018;BME280;3549;42.162;24.726;2023-06-19T03:55:15;47663.22;;;-141.97;67.09
7018;BME280;3549;42.162;24.726;2023-06-19T03:57:40;47682.47;;;-141.97;66.45
7018;BME280;3549;42.162;24.726;2023-06-19T04:00:06;47863.13;;;-141.97;65.66
7018;BME280;3549;42.162;24.726;2023-06-19T04:02:35;47694.00;;;-141.97;65.37
7018;BME280;3549;42.162;24.726;2023-06-19T04:05:01;47699.75;;;-141.97;64.98
7018;BME280;3549;42.162;24.726;2023-06-19T04:07:26;47692.06;;;-141.97;64.76
7018;BME280;3549;42.162;24.726;2023-06-19T04:09:52;47695.91;;;-141.97;64.43
7018;BME280;3549;42.162;24.726;2023-06-19T04:12:17;47619.03;;;-141.97;64.65
7018;BME280;3549;42.162;24.726;2023-06-19T04:14:42;47688.22;;;-141.97;64.08
7018;BME280;3549;42.162;24.726;2023-06-19T04:17:08;47651.69;;;-141.97;63.46
7018;BME280;3549;42.162;24.726;2023-06-19T04:19:33;47611.34;;;-141.97;63.67
7018;BME280;3549;42.162;24.726;2023-06-19T04:21:58;47570.97;;;-141.97;63.32
7018;BME280;3549;42.162;24.726;2023-06-19T04:24:24;47663.22;;;-141.97;63.12
7018;BME280;3549;42.162;24.726;2023-06-19T04:26:49;47653.63;;;-141.97;62.65
7018;BME280;3549;42.162;24.726;2023-06-19T04:29:15;47584.44;;;-141.97;62.20
7018;BME280;3549;42.162;24.726;2023-06-19T04:31:45;47680.53;;;-141.97;61.93
7018;BME280;3549;42.162;24.726;2023-06-19T04:34:16;47653.63;;;-141.97;61.33
7018;BME280;3549;42.162;24.726;2023-06-19T04:36:41;47526.75;;;-141.97;61.14
7018;BME280;3549;42.162;24.726;2023-06-19T04:39:07;47669.00;;;-141.97;60.87
7018;BME280;3549;42.162;24.726;2023-06-19T04:41:32;47634.41;;;-141.97;60.71
7018;BME280;3549;42.162;24.726;2023-06-19T04:43:58;47584.44;;;-141.97;60.54
7018;BME280;3549;42.162;24.726;2023-06-19T04:46:23;47847.75;;;-141.97;60.44
7018;BME280;3549;42.162;24.726;2023-06-19T04:48:49;47753.56;;;-141.97;59.89
7018;BME280;3549;42.162;24.726;2023-06-19T04:51:16;47626.72;;;-141.97;60.07
7018;BME280;3549;42.162;24.726;2023-06-19T04:53:49;47809.31;;;-141.97;59.86
7018;BME280;3549;42.162;24.726;2023-06-19T04:56:14;47592.13;;;-141.97;59.66
7018;BME280;3549;42.162;24.726;2023-06-19T04:58:40;47588.28;;;-141.97;59.39
7018;BME280;3549;42.162;24.726;2023-06-19T05:01:14;47694.00;;;-141.97;59.09
7018;BME280;3549;42.162;24.726;2023-06-19T05:03:40;47645.94;;;-141.97;58.82
7018;BME280;3549;42.162;24.726;2023-06-19T05:06:06;47686.31;;;-141.97;58.82
7018;BME280;3549;42.162;24.726;2023-06-19T05:08:31;47651.69;;;-141.97;58.15
7018;BME280;3549;42.162;24.726;2023-06-19T05:10:57;47851.59;;;-141.97;57.75
7018;BME280;3549;42.162;24.726;2023-06-19T05:13:23;47642.09;;;-141.97;57.81
7018;BME280;3549;42.162;24.726;2023-06-19T05:15:49;47644.00;;;-141.97;57.47
7018;BME280;3549;42.162;24.726;2023-06-19T05:18:16;47688.22;;;-141.97;57.40
7018;BME280;3549;42.162;24.726;2023-06-19T05:20:41;47588.28;;;-141.97;56.56
7018;BME280;3549;42.162;24.726;2023-06-19T05:23:07;47561.38;;;-141.97;56.59
7018;BME280;3549;42.162;24.726;2023-06-19T05:25:32;47471.03;;;-141.97;56.15
7018;BME280;3549;42.162;24.726;2023-06-19T05:27:58;47620.94;;;-141.97;55.69
7018;BME280;3549;42.162;24.726;2023-06-19T05:30:23;47661.31;;;-141.97;55.73
7018;BME280;3549;42.162;24.726;2023-06-19T05:32:48;47546.00;;;-141.97;55.67
7018;BME280;3549;42.162;24.726;2023-06-19T05:35:14;47815.09;;;-141.97;55.67
7018;BME280;3549;42.162;24.726;2023-06-19T05:37:39;47611.34;;;-141.97;55.21
7018;BME280;3549;42.162;24.726;2023-06-19T05:40:08;47603.66;;;-141.97;55.32
7018;BME280;3549;42.162;24.726;2023-06-19T05:42:35;47617.09;;;-141.97;54.22
7018;BME280;3549;42.162;24.726;2023-06-19T05:45:00;47569.06;;;-141.97;54.65
7018;BME280;3549;42.162;24.726;2023-06-19T05:47:27;47584.44;;;-141.97;54.13
7018;BME280;3549;42.162;24.726;2023-06-19T05:49:53;47551.75;;;-141.97;53.24
7018;BME280;3549;42.162;24.726;2023-06-19T05:52:19;47734.34;;;-141.97;53.49
7018;BME280;3549;42.162;24.726;2023-06-19T05:54:45;47642.09;;;-141.97;52.72
7018;BME280;3549;42.162;24.726;2023-06-19T05:57:10;47499.84;;;-141.97;53.41
7018;BME280;3549;42.162;24.726;2023-06-19T05:59:36;47626.72;;;-141.97;52.50
7018;BME280;3549;42.162;24.726;2023-06-19T06:02:02;47611.34;;;-141.97;52.40
7018;BME280;3549;42.162;24.726;2023-06-19T06:04:28;47595.97;;;-141.97;52.51
7018;BME280;3549;42.162;24.726;2023-06-19T06:06:54;47607.50;;;-141.97;52.69
7018;BME280;3549;42.162;24.726;2023-06-19T06:09:19;47607.50;;;-141.97;52.37
7018;BME280;3549;42.162;24.726;2023-06-19T06:11:45;47694.00;;;-141.97;52.74
7018;BME280;3549;42.162;24.726;2023-06-19T06:14:10;47561.38;;;-141.97;52.88
7018;BME280;3549;42.162;24.726;2023-06-19T06:16:36;47634.41;;;-141.97;52.57
7018;BME280;3549;42.162;24.726;2023-06-19T06:19:01;47603.66;;;-141.97;52.47
7018;BME280;3549;42.162;24.726;2023-06-19T06:21:26;47724.75;;;-141.97;51.86
7018;BME280;3549;42.162;24.726;2023-06-19T06:23:52;47615.19;;;-141.97;51.45
7018;BME280;3549;42.162;24.726;2023-06-19T06:26:18;47642.09;;;-141.97;51.85
7018;BME280;3549;42.162;24.726;2023-06-19T06:28:43;47565.22;;;-141.97;50.96
7018;BME280;3549;42.162;24.726;2023-06-19T06:31:09;47601.72;;;-141.97;50.63
7018;BME280;3549;42.162;24.726;2023-06-19T06:33:34;47597.88;;;-141.97;50.91
7018;BME280;3549;42.162;24.726;2023-06-19T06:36:00;47793.94;;;-141.97;50.43
7018;BME280;3549;42.162;24.726;2023-06-19T06:38:25;47622.88;;;-141.97;50.85
7018;BME280;3549;42.162;24.726;2023-06-19T06:40:50;47611.34;;;-141.97;50.69
7018;BME280;3549;42.162;24.726;2023-06-19T06:43:17;47603.66;;;-141.97;50.50
7018;BME280;3549;42.162;24.726;2023-06-19T06:45:42;47601.72;;;-141.97;50.03
7018;BME280;3549;42.162;24.726;2023-06-19T06:48:08;47749.72;;;-141.97;49.74
7018;BME280;3549;42.162;24.726;2023-06-19T06:50:33;47563.28;;;-141.97;49.95
7018;BME280;3549;42.162;24.726;2023-06-19T06:52:59;47807.41;;;-141.97;49.75
7018;BME280;3549;42.162;24.726;2023-06-19T06:55:24;47553.69;;;-141.97;48.13
7018;BME280;3549;42.162;24.726;2023-06-19T06:57:50;47592.13;;;-141.97;47.84
7018;BME280;3549;42.162;24.726;2023-06-19T07:00:15;47815.09;;;-141.97;47.96
7018;BME280;3549;42.162;24.726;2023-06-19T07:02:43;47563.28;;;-141.97;48.70
7018;BME280;3549;42.162;24.726;2023-06-19T07:05:10;47595.97;;;-141.97;48.56
7018;BME280;3549;42.162;24.726;2023-06-19T07:07:36;47580.59;;;-141.97;47.54
7018;BME280;3549;42.162;24.726;2023-06-19T07:10:01;47584.44;;;-141.97;46.53
7018;BME280;3549;42.162;24.726;2023-06-19T07:12:27;47446.03;;;-141.97;47.06
7018;BME280;3549;42.162;24.726;2023-06-19T07:14:56;47480.63;;;-141.97;47.54
7018;BME280;3549;42.162;24.726;2023-06-19T07:17:22;47547.91;;;-141.97;47.34
7018;BME280;3549;42.162;24.726;2023-06-19T07:19:47;47538.28;;;-141.97;45.78
7018;BME280;3549;42.162;24.726;2023-06-19T07:22:13;47519.06;;;-141.97;46.59
7018;BME280;3549;42.162;24.726;2023-06-19T07:24:40;47588.28;;;-141.97;46.60
7018;BME280;3549;42.162;24.726;2023-06-19T07:27:06;47547.91;;;-141.97;46.37
7018;BME280;3549;42.162;24.726;2023-06-19T07:29:31;47544.06;;;-141.97;46.45
7018;BME280;3549;42.162;24.726;2023-06-19T07:31:58;47574.81;;;-141.97;45.81
7018;BME280;3549;42.162;24.726;2023-06-19T07:34:23;47463.34;;;-141.97;45.71
7018;BME280;3549;42.162;24.726;2023-06-19T07:36:48;47580.59;;;-141.97;45.39
7018;BME280;3549;42.162;24.726;2023-06-19T07:39:14;47832.38;;;-141.97;44.91
7018;BME280;3549;42.162;24.726;2023-06-19T07:41:39;47551.75;;;-141.97;44.83
7018;BME280;3549;42.162;24.726;2023-06-19T07:44:05;47476.78;;;-141.97;45.18
7018;BME280;3549;42.162;24.726;2023-06-19T07:46:30;47638.25;;;-141.97;45.16
7018;BME280;3549;42.162;24.726;2023-06-19T07:48:56;47509.47;;;-141.97;44.59
7018;BME280;3549;42.162;24.726;2023-06-19T07:51:21;47517.16;;;-141.97;43.32
7018;BME280;3549;42.162;24.726;2023-06-19T07:53:47;47430.66;;;-141.97;43.00
7018;BME280;3549;42.162;24.726;2023-06-19T07:56:12;47778.56;;;-141.97;43.14
7018;BME280;3549;42.162;24.726;2023-06-19T07:58:38;47780.47;;;-141.97;43.01
7018;BME280;3549;42.162;24.726;2023-06-19T08:01:03;47542.16;;;-141.97;42.95
7018;BME280;3549;42.162;24.726;2023-06-19T08:03:28;47553.69;;;-141.97;42.97
7018;BME280;3549;42.162;24.726;2023-06-19T08:05:55;47524.84;;;-141.97;43.18
7018;BME280;3549;42.162;24.726;2023-06-19T08:08:20;47542.16;;;-141.97;43.09
7018;BME280;3549;42.162;24.726;2023-06-19T08:10:46;47507.53;;;-141.97;42.36
7018;BME280;3549;42.162;24.726;2023-06-19T08:13:11;47461.41;;;-141.97;41.08
7018;BME280;3549;42.162;24.726;2023-06-19T08:15:37;47515.22;;;-141.97;40.92
7018;BME280;3549;42.162;24.726;2023-06-19T08:18:02;47542.16;;;-141.97;41.27
7018;BME280;3549;42.162;24.726;2023-06-19T08:20:28;47461.41;;;-141.97;40.90
7018;BME280;3549;42.162;24.726;2023-06-19T08:22:53;47574.81;;;-141.97;41.62
7018;BME280;3549;42.162;24.726;2023-06-19T08:25:19;47497.94;;;-141.97;42.11
7018;BME280;3549;42.162;24.726;2023-06-19T08:27:44;47530.59;;;-141.97;41.36
7018;BME280;3549;42.162;24.726;2023-06-19T08:30:13;47572.91;;;-141.97;41.30
7018;BME280;3549;42.162;24.726;2023-06-19T08:32:38;47565.22;;;-141.97;41.26
7018;BME280;3549;42.162;24.726;2023-06-19T08:35:04;47455.66;;;-141.97;40.31
7018;BME280;3549;42.162;24.726;2023-06-19T08:37:30;47536.38;;;-141.97;40.08
7018;BME280;3549;42.162;24.726;2023-06-19T08:39:55;47532.53;;;-141.97;40.24
7018;BME280;3549;42.162;24.726;2023-06-19T08:42:25;47449.88;;;-141.97;40.00
7018;BME280;3549;42.162;24.726;2023-06-19T08:44:50;47530.59;;;-141.97;39.31
7018;BME280;3549;42.162;24.726;2023-06-19T08:47:15;47743.97;;;-141.97;40.04
7018;BME280;3549;42.162;24.726;2023-06-19T08:49:42;47521.00;;;-141.97;40.06
7018;BME280;3549;42.162;24.726;2023-06-19T08:52:08;47521.00;;;-141.97;39.51
7018;BME280;3549;42.162;24.726;2023-06-19T08:54:33;47521.00;;;-141.97;40.42
7018;BME280;3549;42.162;24.726;2023-06-19T08:57:02;47507.53;;;-141.97;40.47
7018;BME280;3549;42.162;24.726;2023-06-19T08:59:29;47519.06;;;-141.97;40.33
7018;BME280;3549;42.162;24.726;2023-06-19T09:01:57;47461.41;;;-141.97;39.44
7018;BME280;3549;42.162;24.726;2023-06-19T09:04:25;47519.06;;;-141.97;39.85
7018;BME280;3549;42.162;24.726;2023-06-19T09:07:01;47542.16;;;-141.97;39.07
7018;BME280;3549;42.162;24.726;2023-06-19T09:09:27;47465.25;;;-141.97;39.10
7018;BME280;3549;42.162;24.726;2023-06-19T09:12:14;47519.06;;;-141.97;38.58
7018;BME280;3549;42.162;24.726;2023-06-19T09:14:43;47519.06;;;-141.97;38.93
7018;BME280;3549;42.162;24.726;2023-06-19T09:17:13;47492.16;;;-141.97;39.43
7018;BME280;3549;42.162;24.726;2023-06-19T09:19:52;47496.00;;;-141.97;39.16
7018;BME280;3549;42.162;24.726;2023-06-19T09:22:21;47517.16;;;-141.97;38.43
7018;BME280;3549;42.162;24.726;2023-06-19T09:24:46;47476.78;;;-141.97;38.44
7018;BME280;3549;42.162;24.726;2023-06-19T09:27:14;47542.16;;;-141.97;38.64
7018;BME280;3549;42.162;24.726;2023-06-19T09:29:44;47511.38;;;-141.97;38.72
7018;BME280;3549;42.162;24.726;2023-06-19T09:32:24;47490.25;;;-141.97;39.19
7018;BME280;3549;42.162;24.726;2023-06-19T09:34:51;47526.75;;;-141.97;39.26
7018;BME280;3549;42.162;24.726;2023-06-19T09:37:22;47519.06;;;-141.97;38.12
7018;BME280;3549;42.162;24.726;2023-06-19T09:40:02;47457.56;;;-141.97;37.66
7018;BME280;3549;42.162;24.726;2023-06-19T09:42:39;47478.72;;;-141.97;37.96
7018;BME280;3549;42.162;24.726;2023-06-19T09:45:06;47469.09;;;-141.97;37.68
7018;BME280;3549;42.162;24.726;2023-06-19T09:47:41;47486.41;;;-141.97;37.95
7018;BME280;3549;42.162;24.726;2023-06-19T09:50:08;47507.53;;;-141.97;38.15
7018;BME280;3549;42.162;24.726;2023-06-19T09:52:36;47436.44;;;-141.97;37.60
7018;BME280;3549;42.162;24.726;2023-06-19T09:55:03;47501.78;;;-141.97;37.03
7018;BME280;3549;42.162;24.726;2023-06-19T09:57:30;47524.84;;;-141.97;36.64
7018;BME280;3549;42.162;24.726;2023-06-19T09:59:58;47369.16;;;-141.97;34.84
7018;BME280;3549;42.162;24.726;2023-06-19T10:02:26;47492.16;;;-141.97;35.00
7018;BME280;3549;42.162;24.726;2023-06-19T10:04:54;47255.78;;;-141.97;35.94
7018;BME280;3549;42.162;24.726;2023-06-19T10:07:25;47469.09;;;-141.97;35.39
7018;BME280;3549;42.162;24.726;2023-06-19T10:10:25;47463.34;;;-141.97;35.83
7018;BME280;3549;42.162;24.726;2023-06-19T10:12:53;47453.72;;;-141.97;35.88
7018;BME280;3549;42.162;24.726;2023-06-19T10:15:21;47446.03;;;-141.97;35.21
7018;BME280;3549;42.162;24.726;2023-06-19T10:17:51;47434.50;;;-141.97;35.06
7018;BME280;3549;42.162;24.726;2023-06-19T10:22:59;47465.25;;;-141.97;35.17
7018;BME280;3549;42.162;24.726;2023-06-19T10:25:28;47482.56;;;-141.97;34.86
7018;BME280;3549;42.162;24.726;2023-06-19T10:27:54;47655.53;;;-141.97;34.32
7018;BME280;3549;42.162;24.726;2023-06-19T10:30:20;47430.66;;;-141.97;34.13
7018;BME280;3549;42.162;24.726;2023-06-19T10:32:46;47469.09;;;-141.97;34.99
7018;BME280;3549;42.162;24.726;2023-06-19T10:35:13;47326.88;;;-141.97;34.82
7018;BME280;3549;42.162;24.726;2023-06-19T10:37:39;47384.53;;;-141.97;35.04
7018;BME280;3549;42.162;24.726;2023-06-19T10:40:06;47357.63;;;-141.97;34.56
7018;BME280;3549;42.162;24.726;2023-06-19T10:42:39;47415.28;;;-141.97;34.51
7018;BME280;3549;42.162;24.726;2023-06-19T10:45:06;47380.69;;;-141.97;34.66
7018;BME280;3549;42.162;24.726;2023-06-19T10:47:33;47407.59;;;-141.97;34.85
7018;BME280;3549;42.162;24.726;2023-06-19T10:49:58;47373.00;;;-141.97;34.88
7018;BME280;3549;42.162;24.726;2023-06-19T10:52:24;47447.97;;;-141.97;35.39
7018;BME280;3549;42.162;24.726;2023-06-19T10:54:53;47373.00;;;-141.97;34.91
7018;BME280;3549;42.162;24.726;2023-06-19T10:57:31;47413.38;;;-141.97;35.59
7018;BME280;3549;42.162;24.726;2023-06-19T10:59:57;47457.56;;;-141.97;35.60
7018;BME280;3549;42.162;24.726;2023-06-19T11:02:26;47415.28;;;-141.97;35.63
7018;BME280;3549;42.162;24.726;2023-06-19T11:04:55;47434.50;;;-141.97;35.31
7018;BME280;3549;42.162;24.726;2023-06-19T11:07:21;47426.81;;;-141.97;34.15
7018;BME280;3549;42.162;24.726;2023-06-19T11:09:48;47371.09;;;-141.97;35.08
7018;BME280;3549;42.162;24.726;2023-06-19T11:12:19;47294.22;;;-141.97;34.21
7018;BME280;3549;42.162;24.726;2023-06-19T11:14:45;47511.38;;;-141.97;33.81
7018;BME280;3549;42.162;24.726;2023-06-19T11:17:10;47595.97;;;-141.97;34.28
7018;BME280;3549;42.162;24.726;2023-06-19T11:19:35;47663.22;;;-141.97;34.30
7018;BME280;3549;42.162;24.726;2023-06-19T11:22:03;47365.31;;;-141.97;33.81
7018;BME280;3549;42.162;24.726;2023-06-19T11:24:29;47457.56;;;-141.97;33.26
7018;BME280;3549;42.162;24.726;2023-06-19T11:26:56;47444.13;;;-141.97;33.71
7018;BME280;3549;42.162;24.726;2023-06-19T11:29:31;47349.94;;;-141.97;33.90
7018;BME280;3549;42.162;24.726;2023-06-19T11:32:08;47238.47;;;-141.97;33.55
7018;BME280;3549;42.162;24.726;2023-06-19T11:34:35;47401.84;;;-141.97;33.15
7018;BME280;3549;42.162;24.726;2023-06-19T11:37:21;47382.63;;;-141.97;33.49
7018;BME280;3549;42.162;24.726;2023-06-19T11:39:49;47415.28;;;-141.97;33.92
7018;BME280;3549;42.162;24.726;2023-06-19T11:42:16;47434.50;;;-141.97;34.28
7018;BME280;3549;42.162;24.726;2023-06-19T11:45:02;47411.44;;;-141.97;33.80
7018;BME280;3549;42.162;24.726;2023-06-19T11:47:32;47407.59;;;-141.97;33.52
7018;BME280;3549;42.162;24.726;2023-06-19T11:49:58;47380.69;;;-141.97;32.70
7018;BME280;3549;42.162;24.726;2023-06-19T11:52:24;47305.75;;;-141.97;31.78
7018;BME280;3549;42.162;24.726;2023-06-19T11:54:49;47200.03;;;-141.97;30.87
7018;BME280;3549;42.162;24.726;2023-06-19T11:57:15;47284.59;;;-141.97;29.73
7018;BME280;3549;42.162;24.726;2023-06-19T11:59:41;47313.44;;;-141.97;30.60
7018;BME280;3549;42.162;24.726;2023-06-19T12:02:07;47328.81;;;-141.97;31.45
7018;BME280;3549;42.162;24.726;2023-06-19T12:04:33;47407.59;;;-141.97;31.66
7018;BME280;3549;42.162;24.726;2023-06-19T12:06:59;47409.53;;;-141.97;31.47
7018;BME280;3549;42.162;24.726;2023-06-19T12:09:24;47326.88;;;-141.97;31.02
7018;BME280;3549;42.162;24.726;2023-06-19T12:11:50;47592.13;;;-141.97;30.42
7018;BME280;3549;42.162;24.726;2023-06-19T12:14:16;47205.81;;;-141.97;30.44
7018;BME280;3549;42.162;24.726;2023-06-19T12:16:41;47282.69;;;-141.97;30.92
7018;BME280;3549;42.162;24.726;2023-06-19T12:19:07;47242.31;;;-141.97;30.72
7018;BME280;3549;42.162;24.726;2023-06-19T12:21:32;47301.91;;;-141.97;29.73
7018;BME280;3549;42.162;24.726;2023-06-19T12:23:58;47203.88;;;-141.97;29.01
7018;BME280;3549;42.162;24.726;2023-06-19T12:26:23;47513.31;;;-141.97;29.39
7018;BME280;3549;42.162;24.726;2023-06-19T12:28:51;47251.94;;;-141.97;30.34
7018;BME280;3549;42.162;24.726;2023-06-19T12:31:17;47330.72;;;-141.97;29.83
7018;BME280;3549;42.162;24.726;2023-06-19T12:33:43;47173.13;;;-141.97;30.14
7018;BME280;3549;42.162;24.726;2023-06-19T12:36:16;47659.38;;;-141.97;30.56
7018;BME280;3549;42.162;24.726;2023-06-19T12:38:42;47326.88;;;-141.97;30.88
7018;BME280;3549;42.162;24.726;2023-06-19T12:41:07;47259.63;;;-141.97;30.00
7018;BME280;3549;42.162;24.726;2023-06-19T12:43:33;47251.94;;;-141.97;29.59
7018;BME280;3549;42.162;24.726;2023-06-19T12:45:58;47244.25;;;-141.97;28.52
7018;BME280;3549;42.162;24.726;2023-06-19T12:48:25;47225.03;;;-141.97;27.03
7018;BME280;3549;42.162;24.726;2023-06-19T12:50:50;47392.22;;;-141.97;28.01
7018;BME280;3549;42.162;24.726;2023-06-19T12:53:16;47303.81;;;-141.97;28.92
7018;BME280;3549;42.162;24.726;2023-06-19T12:55:41;47004.00;;;-141.97;29.13
7018;BME280;3549;42.162;24.726;2023-06-19T12:58:08;47417.22;;;-141.97;29.21